createdAt,value
2022-09-07T00:00:38.348Z,68.43
2022-09-07T00:01:38.320Z,68.43
2022-09-07T00:02:38.369Z,68.43
2022-09-07T00:03:38.314Z,68.43
2022-09-07T00:04:38.384Z,68.43
2022-09-07T00:05:38.268Z,68.43
2022-09-07T00:06:38.258Z,68.43
2022-09-07T00:07:38.247Z,68.43
2022-09-07T00:08:38.270Z,68.43
2022-09-07T00:09:38.226Z,68.43
2022-09-07T00:10:38.218Z,68.43
2022-09-07T00:11:38.206Z,68.43
2022-09-07T00:12:38.197Z,68.43
2022-09-07T00:13:38.207Z,68.33
2022-09-07T00:14:38.180Z,68.33
2022-09-07T00:15:38.163Z,68.33
2022-09-07T00:16:38.219Z,68.43
2022-09-07T00:17:38.142Z,68.33
2022-09-07T00:18:40.352Z,68.33
2022-09-07T00:19:39.121Z,68.33
2022-09-07T00:20:38.113Z,68.33
2022-09-07T00:21:38.100Z,68.33
2022-09-07T00:22:38.090Z,68.23
2022-09-07T00:23:38.078Z,68.23
2022-09-07T00:24:38.096Z,68.13
2022-09-07T00:25:38.058Z,68.13
2022-09-07T00:26:38.049Z,68.13
2022-09-07T00:27:38.062Z,68.13
2022-09-07T00:28:38.051Z,68.13
2022-09-07T00:29:38.036Z,68.13
2022-09-07T00:30:38.005Z,68.13
2022-09-07T00:31:38.035Z,68.13
2022-09-07T00:32:37.984Z,68.13
2022-09-07T00:33:37.999Z,68.13
2022-09-07T00:34:37.963Z,68.13
2022-09-07T00:35:37.952Z,68.13
2022-09-07T00:36:37.942Z,68.13
2022-09-07T00:37:37.932Z,68.13
2022-09-07T00:38:37.943Z,68.23
2022-09-07T00:39:37.957Z,68.23
2022-09-07T00:40:37.901Z,68.23
2022-09-07T00:41:37.891Z,68.23
2022-09-07T00:42:37.880Z,68.23
2022-09-07T00:43:37.870Z,68.23
2022-09-07T00:44:37.880Z,68.23
2022-09-07T00:45:37.874Z,68.23
2022-09-07T00:46:38.087Z,68.23
2022-09-07T00:47:37.830Z,68.23
2022-09-07T00:48:37.817Z,68.23
2022-09-07T00:49:37.812Z,68.23
2022-09-07T00:50:37.799Z,68.33
2022-09-07T00:51:37.805Z,68.33
2022-09-07T00:52:37.777Z,68.33
2022-09-07T00:53:37.765Z,68.33
2022-09-07T00:54:37.758Z,68.33
2022-09-07T00:55:37.746Z,68.33
2022-09-07T00:56:37.755Z,68.33
2022-09-07T00:57:37.724Z,68.33
2022-09-07T00:58:37.712Z,68.33
2022-09-07T00:59:37.711Z,68.33
2022-09-07T01:00:37.691Z,68.33
2022-09-07T01:01:37.945Z,68.33
2022-09-07T01:02:37.818Z,68.33
2022-09-07T01:03:37.659Z,68.33
2022-09-07T01:04:37.646Z,68.33
2022-09-07T01:05:37.639Z,68.33
2022-09-07T01:06:37.644Z,68.43
2022-09-07T01:07:37.618Z,68.33
2022-09-07T01:08:37.605Z,68.33
2022-09-07T01:09:37.597Z,68.33
2022-09-07T01:10:37.584Z,68.33
2022-09-07T01:11:37.602Z,68.43
2022-09-07T01:12:37.563Z,68.43
2022-09-07T01:13:37.554Z,68.43
2022-09-07T01:14:37.544Z,68.43
2022-09-07T01:15:37.591Z,68.43
2022-09-07T01:16:37.523Z,68.43
2022-09-07T01:17:37.534Z,68.43
2022-09-07T01:18:37.499Z,68.43
2022-09-07T01:19:37.491Z,68.43
2022-09-07T01:20:37.480Z,68.43
2022-09-07T01:21:37.471Z,68.43
2022-09-07T01:22:37.485Z,68.43
2022-09-07T01:23:37.449Z,68.43
2022-09-07T01:24:37.437Z,68.43
2022-09-07T01:25:37.451Z,68.43
2022-09-07T01:26:37.423Z,68.43
2022-09-07T01:27:37.408Z,68.43
2022-09-07T01:28:37.416Z,68.43
2022-09-07T01:29:37.388Z,68.43
2022-09-07T01:30:37.376Z,68.43
2022-09-07T01:31:37.438Z,68.43
2022-09-07T01:32:37.376Z,68.43
2022-09-07T01:33:37.349Z,68.43
2022-09-07T01:34:37.332Z,68.43
2022-09-07T01:35:37.343Z,68.43
2022-09-07T01:36:37.311Z,68.43
2022-09-07T01:37:37.303Z,68.43
2022-09-07T01:38:37.296Z,68.43
2022-09-07T01:39:37.352Z,68.43
2022-09-07T01:40:37.289Z,68.43
2022-09-07T01:41:37.262Z,68.43
2022-09-07T01:42:37.271Z,68.43
2022-09-07T01:43:37.239Z,68.43
2022-09-07T01:44:37.226Z,68.53
2022-09-07T01:45:37.216Z,68.53
2022-09-07T01:46:37.367Z,68.53
2022-09-07T01:47:37.197Z,68.53
2022-09-07T01:48:37.203Z,68.53
2022-09-07T01:49:37.177Z,68.53
2022-09-07T01:50:37.163Z,68.53
2022-09-07T01:51:37.184Z,68.53
2022-09-07T01:52:37.144Z,68.53
2022-09-07T01:53:37.133Z,68.53
2022-09-07T01:54:37.122Z,68.53
2022-09-07T01:55:37.112Z,68.53
2022-09-07T01:56:37.100Z,68.53
2022-09-07T01:57:37.110Z,68.53
2022-09-07T01:58:37.079Z,68.53
2022-09-07T01:59:37.093Z,68.53
2022-09-07T02:00:37.058Z,68.53
2022-09-07T02:01:37.099Z,68.53
2022-09-07T02:02:37.134Z,68.53
2022-09-07T02:03:37.028Z,68.53
2022-09-07T02:04:37.015Z,68.53
2022-09-07T02:05:37.023Z,68.53
2022-09-07T02:06:36.995Z,68.53
2022-09-07T02:07:36.984Z,68.53
2022-09-07T02:08:36.994Z,68.53
2022-09-07T02:09:36.962Z,68.53
2022-09-07T02:10:36.974Z,68.53
2022-09-07T02:11:36.941Z,68.53
2022-09-07T02:12:36.933Z,68.53
2022-09-07T02:13:36.921Z,68.53
2022-09-07T02:14:36.913Z,68.53
2022-09-07T02:15:36.995Z,68.53
2022-09-07T02:16:36.889Z,68.53
2022-09-07T02:17:36.880Z,68.53
2022-09-07T02:18:36.869Z,68.53
2022-09-07T02:19:36.856Z,68.53
2022-09-07T02:20:36.864Z,68.53
2022-09-07T02:21:36.835Z,68.53
2022-09-07T02:22:36.842Z,68.53
2022-09-07T02:23:36.814Z,68.53
2022-09-07T02:24:36.820Z,68.53
2022-09-07T02:25:36.794Z,68.53
2022-09-07T02:26:36.780Z,68.53
2022-09-07T02:27:36.774Z,68.53
2022-09-07T02:28:36.759Z,68.53
2022-09-07T02:29:36.774Z,68.53
2022-09-07T02:30:36.751Z,68.53
2022-09-07T02:31:36.728Z,68.53
2022-09-07T02:32:36.735Z,68.53
2022-09-07T02:33:36.707Z,68.53
2022-09-07T02:34:36.695Z,68.53
2022-09-07T02:35:36.689Z,68.53
2022-09-07T02:36:36.675Z,68.53
2022-09-07T02:37:36.685Z,68.53
2022-09-07T02:38:36.653Z,68.53
2022-09-07T02:39:36.667Z,68.53
2022-09-07T02:40:36.632Z,68.53
2022-09-07T02:41:36.626Z,68.53
2022-09-07T02:42:36.637Z,68.53
2022-09-07T02:43:36.603Z,68.53
2022-09-07T02:44:36.608Z,68.53
2022-09-07T02:45:36.580Z,68.53
2022-09-07T02:46:36.640Z,68.53
2022-09-07T02:47:36.563Z,68.53
2022-09-07T02:48:36.573Z,68.53
2022-09-07T02:49:36.539Z,68.63
2022-09-07T02:50:36.528Z,68.63
2022-09-07T02:51:36.516Z,68.63
2022-09-07T02:52:36.511Z,68.63
2022-09-07T02:53:36.494Z,68.63
2022-09-07T02:54:36.505Z,68.63
2022-09-07T02:55:36.480Z,68.63
2022-09-07T02:56:36.462Z,68.53
2022-09-07T02:57:36.454Z,68.63
2022-09-07T02:58:36.442Z,68.63
2022-09-07T02:59:36.467Z,68.63
2022-09-07T03:00:36.421Z,68.63
2022-09-07T03:01:36.460Z,68.63
2022-09-07T03:02:36.498Z,68.63
2022-09-07T03:03:36.392Z,68.63
2022-09-07T03:04:36.410Z,68.63
2022-09-07T03:05:36.373Z,68.63
2022-09-07T03:06:36.360Z,68.63
2022-09-07T03:07:38.978Z,68.63
2022-09-07T03:08:36.339Z,68.63
2022-09-07T03:09:36.327Z,68.63
2022-09-07T03:10:36.336Z,68.63
2022-09-07T03:11:36.307Z,68.63
2022-09-07T03:12:36.317Z,68.63
2022-09-07T03:13:36.293Z,68.63
2022-09-07T03:14:36.275Z,68.63
2022-09-07T03:15:36.305Z,68.63
2022-09-07T03:16:36.255Z,68.63
2022-09-07T03:17:36.264Z,68.63
2022-09-07T03:18:36.233Z,68.63
2022-09-07T03:19:36.225Z,68.63
2022-09-07T03:20:36.213Z,68.63
2022-09-07T03:21:36.223Z,68.63
2022-09-07T03:22:36.190Z,68.63
2022-09-07T03:23:36.180Z,68.63
2022-09-07T03:24:36.182Z,68.63
2022-09-07T03:25:36.163Z,68.63
2022-09-07T03:26:36.170Z,68.63
2022-09-07T03:27:36.143Z,68.63
2022-09-07T03:28:36.131Z,68.63
2022-09-07T03:29:40.183Z,68.63
2022-09-07T03:30:37.159Z,68.63
2022-09-07T03:31:36.099Z,68.63
2022-09-07T03:32:36.091Z,68.63
2022-09-07T03:33:36.077Z,68.63
2022-09-07T03:34:36.066Z,68.63
2022-09-07T03:35:36.076Z,68.63
2022-09-07T03:36:36.043Z,68.63
2022-09-07T03:37:36.036Z,68.63
2022-09-07T03:38:36.045Z,68.63
2022-09-07T03:39:36.074Z,68.63
2022-09-07T03:40:36.001Z,68.63
2022-09-07T03:41:36.016Z,68.63
2022-09-07T03:42:35.994Z,68.63
2022-09-07T03:43:35.974Z,68.63
2022-09-07T03:44:35.962Z,68.63
2022-09-07T03:45:35.986Z,68.63
2022-09-07T03:46:35.939Z,68.63
2022-09-07T03:47:35.930Z,68.63
2022-09-07T03:48:35.919Z,68.63
2022-09-07T03:49:35.909Z,68.63
2022-09-07T03:50:35.896Z,68.63
2022-09-07T03:51:35.910Z,68.63
2022-09-07T03:52:35.876Z,68.63
2022-09-07T03:53:35.869Z,68.63
2022-09-07T03:54:39.418Z,68.63
2022-09-07T03:55:35.844Z,68.63
2022-09-07T03:56:35.832Z,68.63
2022-09-07T03:57:35.843Z,68.63
2022-09-07T03:58:35.814Z,68.63
2022-09-07T03:59:35.804Z,68.63
2022-09-07T04:00:35.790Z,68.63
2022-09-07T04:01:35.910Z,68.63
2022-09-07T04:02:35.814Z,68.63
2022-09-07T04:03:35.758Z,68.63
2022-09-07T04:04:35.747Z,68.63
2022-09-07T04:05:35.739Z,68.63
2022-09-07T04:06:35.750Z,68.63
2022-09-07T04:07:35.715Z,68.63
2022-09-07T04:08:35.704Z,68.73
2022-09-07T04:09:35.722Z,68.73
2022-09-07T04:10:35.683Z,68.73
2022-09-07T04:11:35.676Z,68.73
2022-09-07T04:12:35.663Z,68.73
2022-09-07T04:13:35.657Z,68.73
2022-09-07T04:14:35.642Z,68.73
2022-09-07T04:15:35.653Z,68.73
2022-09-07T04:16:35.660Z,68.73
2022-09-07T04:17:35.611Z,68.73
2022-09-07T04:18:35.637Z,68.73
2022-09-07T04:19:35.591Z,68.73
2022-09-07T04:20:35.578Z,68.73
2022-09-07T04:21:35.567Z,68.73
2022-09-07T04:22:35.555Z,68.73
2022-09-07T04:23:35.547Z,68.73
2022-09-07T04:24:35.555Z,68.73
2022-09-07T04:25:35.524Z,68.73
2022-09-07T04:26:35.540Z,68.73
2022-09-07T04:27:35.503Z,68.73
2022-09-07T04:28:35.494Z,68.73
2022-09-07T04:29:35.519Z,68.73
2022-09-07T04:30:35.548Z,68.73
2022-09-07T04:31:35.460Z,68.73
2022-09-07T04:32:35.449Z,68.73
2022-09-07T04:33:35.442Z,68.73
2022-09-07T04:34:35.428Z,68.73
2022-09-07T04:35:35.451Z,68.73
2022-09-07T04:36:35.408Z,68.73
2022-09-07T04:37:35.399Z,68.73
2022-09-07T04:38:35.388Z,68.73
2022-09-07T04:39:35.452Z,68.83
2022-09-07T04:40:35.366Z,68.83
2022-09-07T04:41:35.385Z,68.83
2022-09-07T04:42:35.345Z,68.83
2022-09-07T04:43:35.335Z,68.83
2022-09-07T04:44:35.327Z,68.83
2022-09-07T04:45:35.347Z,68.83
2022-09-07T04:46:35.304Z,68.73
2022-09-07T04:47:35.316Z,68.73
2022-09-07T04:48:35.281Z,68.73
2022-09-07T04:49:35.293Z,68.73
2022-09-07T04:50:35.279Z,68.73
2022-09-07T04:51:35.250Z,68.73
2022-09-07T04:52:35.241Z,68.83
2022-09-07T04:53:35.230Z,68.83
2022-09-07T04:54:35.238Z,68.73
2022-09-07T04:55:35.208Z,68.83
2022-09-07T04:56:35.196Z,68.83
2022-09-07T04:57:35.187Z,68.73
2022-09-07T04:58:35.177Z,68.73
2022-09-07T04:59:35.210Z,68.73
2022-09-07T05:00:35.156Z,68.73
2022-09-07T05:01:35.286Z,68.73
2022-09-07T05:02:35.197Z,68.73
2022-09-07T05:03:35.125Z,68.73
2022-09-07T05:04:35.134Z,68.73
2022-09-07T05:05:35.102Z,68.73
2022-09-07T05:06:35.094Z,68.83
2022-09-07T05:07:35.081Z,68.83
2022-09-07T05:08:35.082Z,68.83
2022-09-07T05:09:35.089Z,68.83
2022-09-07T05:10:35.049Z,68.83
2022-09-07T05:11:35.060Z,68.73
2022-09-07T05:12:35.028Z,68.83
2022-09-07T05:13:35.021Z,68.73
2022-09-07T05:14:35.008Z,68.73
2022-09-07T05:15:34.999Z,68.83
2022-09-07T05:16:35.063Z,68.83
2022-09-07T05:17:34.977Z,68.83
2022-09-07T05:18:34.968Z,68.83
2022-09-07T05:19:34.958Z,68.83
2022-09-07T05:20:34.946Z,68.83
2022-09-07T05:21:34.958Z,68.83
2022-09-07T05:22:34.925Z,68.83
2022-09-07T05:23:34.913Z,68.83
2022-09-07T05:24:34.922Z,68.83
2022-09-07T05:25:34.895Z,68.83
2022-09-07T05:26:34.881Z,68.83
2022-09-07T05:27:34.873Z,68.73
2022-09-07T05:28:34.863Z,68.83
2022-09-07T05:31:35.826Z,68.73
2022-09-07T05:32:34.818Z,68.73
2022-09-07T05:34:35.834Z,68.73
2022-09-07T05:35:34.791Z,68.83
2022-09-07T05:36:34.782Z,68.73
2022-09-07T05:37:34.766Z,68.83
2022-09-07T05:38:34.757Z,68.83
2022-09-07T05:39:34.840Z,68.73
2022-09-07T05:40:39.858Z,68.73
2022-09-07T05:41:35.725Z,68.73
2022-09-07T05:42:34.712Z,68.73
2022-09-07T05:43:34.791Z,68.83
2022-09-07T05:44:50.153Z,68.73
2022-09-07T05:45:35.703Z,68.73
2022-09-07T05:46:34.670Z,68.73
2022-09-07T05:47:34.664Z,68.73
2022-09-07T05:48:34.649Z,68.73
2022-09-07T05:49:34.672Z,68.73
2022-09-07T05:50:34.629Z,68.83
2022-09-07T05:51:34.618Z,68.73
2022-09-07T05:52:34.608Z,68.73
2022-09-07T05:53:34.599Z,68.73
2022-09-07T05:54:34.587Z,68.73
2022-09-07T05:55:34.598Z,68.73
2022-09-07T05:56:34.565Z,68.73
2022-09-07T05:57:34.646Z,68.73
2022-09-07T05:58:34.543Z,68.73
2022-09-07T05:59:34.532Z,68.73
2022-09-07T06:00:34.521Z,68.83
2022-09-07T06:01:34.547Z,68.83
2022-09-07T06:02:39.530Z,68.73
2022-09-07T06:03:35.514Z,68.73
2022-09-07T06:04:34.481Z,68.83
2022-09-07T06:05:34.471Z,68.83
2022-09-07T06:06:34.459Z,68.83
2022-09-07T06:07:34.488Z,68.83
2022-09-07T06:08:34.438Z,68.83
2022-09-07T06:09:34.452Z,68.83
2022-09-07T06:10:49.685Z,68.83
2022-09-07T06:11:35.429Z,68.83
2022-09-07T06:12:34.397Z,68.83
2022-09-07T06:13:34.386Z,68.83
2022-09-07T06:14:34.378Z,68.83
2022-09-07T06:15:34.365Z,68.83
2022-09-07T06:16:34.499Z,68.83
2022-09-07T06:17:34.379Z,68.93
2022-09-07T06:18:34.389Z,68.93
2022-09-07T06:19:34.329Z,68.93
2022-09-07T06:20:34.313Z,68.93
2022-09-07T06:21:34.303Z,68.93
2022-09-07T06:22:34.292Z,68.93
2022-09-07T06:23:34.303Z,68.93
2022-09-07T06:24:34.271Z,68.93
2022-09-07T06:25:34.299Z,68.93
2022-09-07T06:26:34.255Z,68.93
2022-09-07T06:27:34.242Z,68.93
2022-09-07T06:28:34.238Z,68.93
2022-09-07T06:29:34.244Z,68.93
2022-09-07T06:30:34.210Z,68.93
2022-09-07T06:31:34.569Z,68.93
2022-09-07T06:32:49.621Z,68.93
2022-09-07T06:33:35.393Z,69.02
2022-09-07T06:34:34.167Z,68.93
2022-09-07T06:35:34.157Z,69.02
2022-09-07T06:36:34.149Z,69.02
2022-09-07T06:37:34.165Z,69.02
2022-09-07T06:38:34.127Z,69.02
2022-09-07T06:39:34.165Z,69.02
2022-09-07T06:40:34.104Z,69.13
2022-09-07T06:42:35.107Z,69.13
2022-09-07T06:43:34.071Z,69.13
2022-09-07T06:44:34.063Z,69.13
2022-09-07T06:45:34.123Z,69.23
2022-09-07T06:47:35.028Z,69.13
2022-09-07T06:48:34.041Z,69.23
2022-09-07T06:49:34.010Z,69.13
2022-09-07T06:50:34.000Z,69.13
2022-09-07T06:51:33.987Z,69.13
2022-09-07T06:53:35.331Z,69.23
2022-09-07T06:55:34.958Z,69.23
2022-09-07T06:56:33.935Z,69.32
2022-09-07T06:57:33.924Z,69.32
2022-09-07T06:58:33.945Z,69.43
2022-09-07T06:59:33.902Z,69.43
2022-09-07T07:00:33.892Z,69.43
2022-09-07T07:01:33.880Z,69.43
2022-09-07T07:02:33.873Z,69.53
2022-09-07T07:03:33.955Z,69.53
2022-09-07T07:04:39.603Z,69.53
2022-09-07T07:05:34.837Z,69.53
2022-09-07T07:06:33.831Z,69.49
2022-09-07T07:07:33.819Z,69.49
2022-09-07T07:08:33.810Z,69.49
2022-09-07T07:09:33.816Z,69.49
2022-09-07T07:10:33.805Z,69.49
2022-09-07T07:11:33.777Z,69.49
2022-09-07T07:13:04.886Z,69.49
2022-09-07T07:14:04.858Z,69.49
2022-09-07T07:15:04.887Z,69.49
2022-09-07T07:16:04.879Z,69.49
2022-09-07T07:17:04.822Z,69.49
2022-09-07T07:18:19.707Z,69.49
2022-09-07T07:19:05.801Z,69.39
2022-09-07T07:20:04.791Z,69.39
2022-09-07T07:21:04.808Z,69.29
2022-09-07T07:22:18.740Z,69.29
2022-09-07T07:23:05.759Z,69.29
2022-09-07T07:24:08.102Z,69.29
2022-09-07T07:25:04.736Z,69.29
2022-09-07T07:26:04.737Z,69.29
2022-09-07T07:27:04.740Z,69.20
2022-09-07T07:29:05.698Z,69.29
2022-09-07T07:30:04.715Z,69.20
2022-09-07T07:31:07.490Z,69.20
2022-09-07T07:32:05.663Z,69.29
2022-09-07T07:33:04.764Z,69.29
2022-09-07T07:34:04.687Z,69.29
2022-09-07T07:35:04.654Z,69.29
2022-09-07T07:36:04.619Z,69.29
2022-09-07T07:37:04.608Z,69.29
2022-09-07T07:39:05.639Z,69.29
2022-09-07T07:42:06.246Z,69.20
2022-09-07T07:43:05.708Z,69.20
2022-09-07T07:44:04.568Z,69.20
2022-09-07T07:46:06.269Z,69.29
2022-09-07T07:47:04.602Z,69.39
2022-09-07T07:48:04.496Z,69.49
2022-09-07T07:49:04.479Z,69.49
2022-09-07T07:51:09.819Z,69.59
2022-09-07T07:54:05.426Z,69.59
2022-09-07T07:55:42.798Z,69.59
2022-09-07T07:56:05.404Z,69.59
2022-09-07T07:57:04.404Z,69.59
2022-09-07T07:58:04.427Z,69.59
2022-09-07T07:59:04.371Z,69.59
2022-09-07T08:00:04.363Z,69.59
2022-09-07T08:01:04.424Z,69.49
2022-09-07T08:02:05.054Z,69.49
2022-09-07T08:03:04.330Z,69.39
2022-09-07T08:04:04.389Z,69.39
2022-09-07T08:05:04.309Z,69.39
2022-09-07T08:06:04.319Z,69.39
2022-09-07T08:07:09.523Z,69.39
2022-09-07T08:08:05.302Z,69.39
2022-09-07T08:09:04.267Z,69.39
2022-09-07T08:10:04.259Z,69.39
2022-09-07T08:11:04.244Z,69.39
2022-09-07T08:12:04.236Z,69.39
2022-09-07T08:13:04.230Z,69.39
2022-09-07T08:14:04.247Z,69.39
2022-09-07T08:15:04.230Z,69.39
2022-09-07T08:16:04.231Z,69.39
2022-09-07T08:17:04.396Z,69.39
2022-09-07T08:18:04.175Z,69.39
2022-09-07T08:19:04.163Z,69.39
2022-09-07T08:20:04.150Z,69.39
2022-09-07T08:21:04.139Z,69.29
2022-09-07T08:22:04.237Z,69.29
2022-09-07T08:23:04.117Z,69.39
2022-09-07T08:24:04.110Z,69.39
2022-09-07T08:25:04.097Z,69.39
2022-09-07T08:26:04.086Z,69.29
2022-09-07T08:27:04.098Z,69.39
2022-09-07T08:28:04.115Z,69.39
2022-09-07T08:29:04.053Z,69.39
2022-09-07T08:30:04.044Z,69.39
2022-09-07T08:31:04.102Z,69.39
2022-09-07T08:32:04.053Z,69.39
2022-09-07T08:33:04.012Z,69.39
2022-09-07T08:34:04.003Z,69.39
2022-09-07T08:35:03.990Z,69.39
2022-09-07T08:36:03.985Z,69.39
2022-09-07T08:37:03.968Z,69.49
2022-09-07T08:38:04.135Z,69.39
2022-09-07T08:39:03.972Z,69.39
2022-09-07T08:40:04.129Z,69.39
2022-09-07T08:41:03.926Z,69.49
2022-09-07T08:42:03.916Z,69.49
2022-09-07T08:43:03.908Z,69.49
2022-09-07T08:44:03.923Z,69.39
2022-09-07T08:45:03.884Z,69.49
2022-09-07T08:46:03.876Z,69.49
2022-09-07T08:47:03.954Z,69.39
2022-09-07T08:48:03.853Z,69.39
2022-09-07T08:49:03.864Z,69.39
2022-09-07T08:50:03.831Z,69.39
2022-09-07T08:51:03.820Z,69.29
2022-09-07T08:52:03.813Z,69.29
2022-09-07T08:53:03.799Z,69.29
2022-09-07T08:54:03.917Z,69.29
2022-09-07T08:55:03.782Z,69.29
2022-09-07T08:56:03.790Z,69.29
2022-09-07T08:58:04.746Z,69.29
2022-09-07T08:59:03.768Z,69.29
2022-09-07T09:00:03.759Z,69.29
2022-09-07T09:01:33.733Z,69.29
2022-09-07T09:04:21.792Z,69.29
2022-09-07T09:05:20.400Z,69.29
2022-09-07T09:06:04.807Z,69.39
2022-09-07T09:07:03.784Z,69.39
2022-09-07T09:08:03.646Z,69.39
2022-09-07T09:09:03.656Z,69.49
2022-09-07T09:10:03.645Z,69.39
2022-09-07T09:11:03.614Z,69.39
2022-09-07T09:12:03.605Z,69.49
2022-09-07T09:13:03.589Z,69.49
2022-09-07T09:14:03.582Z,69.49
2022-09-07T09:15:03.944Z,69.49
2022-09-07T09:16:03.692Z,69.49
2022-09-07T09:17:03.547Z,69.49
2022-09-07T09:18:03.539Z,69.59
2022-09-07T09:19:03.525Z,69.49
2022-09-07T09:20:03.516Z,69.49
2022-09-07T09:21:03.545Z,69.59
2022-09-07T09:22:03.496Z,69.59
2022-09-07T09:23:03.484Z,69.59
2022-09-07T09:24:03.476Z,69.69
2022-09-07T09:25:03.471Z,69.69
2022-09-07T09:26:03.512Z,69.69
2022-09-07T09:27:03.446Z,69.89
2022-09-07T09:28:03.432Z,69.89
2022-09-07T09:29:03.425Z,69.79
2022-09-07T09:30:03.416Z,69.69
2022-09-07T09:31:03.518Z,69.66
2022-09-07T09:32:03.392Z,69.69
2022-09-07T09:33:03.380Z,69.69
2022-09-07T09:34:03.369Z,69.59
2022-09-07T09:35:03.358Z,69.69
2022-09-07T09:36:03.378Z,69.66
2022-09-07T09:37:03.338Z,69.69
2022-09-07T09:38:03.353Z,69.69
2022-09-07T09:39:03.316Z,69.49
2022-09-07T09:40:03.482Z,69.49
2022-09-07T09:41:03.294Z,69.49
2022-09-07T09:42:03.384Z,69.49
2022-09-07T09:43:03.302Z,69.49
2022-09-07T09:44:03.265Z,69.59
2022-09-07T09:45:03.255Z,69.59
2022-09-07T09:46:18.956Z,69.59
2022-09-07T09:48:04.318Z,69.69
2022-09-07T09:49:03.213Z,69.69
2022-09-07T09:50:03.201Z,69.69
2022-09-07T09:53:04.170Z,69.59
2022-09-07T09:54:03.160Z,69.59
2022-09-07T09:55:33.794Z,69.79
2022-09-07T09:56:04.172Z,69.59
2022-09-07T09:57:03.130Z,69.59
2022-09-07T09:59:05.715Z,69.59
2022-09-07T10:00:08.853Z,69.59
2022-09-07T10:04:06.336Z,69.59
2022-09-07T10:05:04.043Z,69.59
2022-09-07T10:06:03.034Z,69.59
2022-09-07T10:07:03.023Z,69.59
2022-09-07T10:08:03.068Z,69.59
2022-09-07T10:09:03.034Z,69.69
2022-09-07T10:10:02.997Z,69.69
2022-09-07T10:11:02.990Z,69.69
2022-09-07T10:12:06.827Z,69.69
2022-09-07T10:13:02.961Z,69.69
2022-09-07T10:14:03.008Z,69.69
2022-09-07T10:15:02.942Z,69.69
2022-09-07T10:16:02.989Z,69.79
2022-09-07T10:17:02.971Z,69.69
2022-09-07T10:18:02.927Z,69.79
2022-09-07T10:19:02.897Z,69.76
2022-09-07T10:20:02.918Z,69.76
2022-09-07T10:21:02.875Z,69.76
2022-09-07T10:22:02.868Z,69.76
2022-09-07T10:23:02.859Z,69.76
2022-09-07T10:24:02.879Z,69.76
2022-09-07T10:25:02.837Z,69.76
2022-09-07T10:26:02.847Z,69.76
2022-09-07T10:27:02.816Z,69.66
2022-09-07T10:28:02.829Z,69.66
2022-09-07T10:29:10.375Z,69.66
2022-09-07T10:30:06.672Z,69.56
2022-09-07T10:31:02.828Z,69.56
2022-09-07T10:32:02.760Z,69.59
2022-09-07T10:33:02.751Z,69.56
2022-09-07T10:35:05.267Z,69.66
2022-09-07T10:36:02.721Z,69.66
2022-09-07T10:37:02.714Z,69.66
2022-09-07T10:38:02.699Z,69.66
2022-09-07T10:39:02.689Z,69.66
2022-09-07T10:40:02.749Z,69.76
2022-09-07T10:41:02.701Z,69.76
2022-09-07T10:42:02.673Z,69.66
2022-09-07T10:44:03.634Z,69.66
2022-09-07T10:45:02.634Z,69.66
2022-09-07T10:46:02.698Z,69.56
2022-09-07T10:47:02.711Z,69.56
2022-09-07T10:48:02.612Z,69.46
2022-09-07T10:49:02.583Z,69.46
2022-09-07T10:50:32.570Z,69.46
2022-09-07T10:51:13.421Z,69.56
2022-09-07T10:52:03.574Z,69.56
2022-09-07T10:53:13.593Z,69.56
2022-09-07T10:55:03.521Z,69.56
2022-09-07T10:56:02.539Z,69.56
2022-09-07T10:57:02.503Z,69.56
2022-09-07T10:58:02.486Z,69.56
2022-09-07T10:59:03.431Z,69.56
2022-09-07T11:00:10.386Z,69.56
2022-09-07T11:01:03.456Z,69.56
2022-09-07T11:02:02.482Z,69.56
2022-09-07T11:04:03.499Z,69.56
2022-09-07T11:05:02.445Z,69.46
2022-09-07T11:06:02.403Z,69.46
2022-09-07T11:07:02.424Z,69.46
2022-09-07T11:08:02.386Z,69.56
2022-09-07T11:09:18.604Z,69.56
2022-09-07T11:10:03.385Z,69.56
2022-09-07T11:11:02.353Z,69.56
2022-09-07T11:12:03.281Z,69.46
2022-09-07T11:13:02.330Z,69.46
2022-09-07T11:14:13.023Z,69.49
2022-09-07T11:15:03.332Z,69.46
2022-09-07T11:16:02.360Z,69.46
2022-09-07T11:17:02.397Z,69.46
2022-09-07T11:18:02.328Z,69.49
2022-09-07T11:20:03.290Z,69.49
2022-09-07T11:21:02.246Z,69.46
2022-09-07T11:22:02.251Z,69.46
2022-09-07T11:23:02.228Z,69.46
2022-09-07T11:24:02.216Z,69.49
2022-09-07T11:26:03.221Z,69.46
2022-09-07T11:27:02.186Z,69.46
2022-09-07T11:28:02.175Z,69.49
2022-09-07T11:30:03.199Z,69.46
2022-09-07T11:31:02.240Z,69.46
2022-09-07T11:32:02.133Z,69.56
2022-09-07T11:33:02.124Z,69.56
2022-09-07T11:35:03.104Z,69.56
2022-09-07T11:36:02.094Z,69.46
2022-09-07T11:37:02.085Z,69.66
2022-09-07T11:38:02.068Z,69.76
2022-09-07T11:39:02.090Z,69.86
2022-09-07T11:40:02.154Z,69.86
2022-09-07T11:41:02.038Z,69.86
2022-09-07T11:42:42.623Z,69.96
2022-09-07T11:43:03.037Z,70.06
2022-09-07T11:44:02.010Z,70.16
2022-09-07T11:45:01.996Z,70.16
2022-09-07T11:46:02.043Z,70.36
2022-09-07T11:47:01.987Z,70.45
2022-09-07T11:48:02.153Z,70.45
2022-09-07T11:49:04.508Z,70.45
2022-09-07T11:50:02.044Z,70.56
2022-09-07T11:51:01.932Z,70.45
2022-09-07T11:52:05.406Z,69.96
2022-09-07T11:53:01.935Z,70.16
2022-09-07T11:54:01.916Z,70.16
2022-09-07T11:55:01.893Z,70.16
2022-09-07T11:56:01.893Z,70.16
2022-09-07T11:57:01.871Z,70.06
2022-09-07T11:58:01.891Z,70.06
2022-09-07T11:59:01.888Z,70.06
2022-09-07T12:00:01.837Z,69.96
2022-09-07T12:01:01.845Z,69.96
2022-09-07T12:02:01.817Z,69.96
2022-09-07T12:03:01.932Z,69.96
2022-09-07T12:04:02.020Z,69.96
2022-09-07T12:05:01.905Z,69.96
2022-09-07T12:06:01.799Z,69.96
2022-09-07T12:07:01.765Z,69.96
2022-09-07T12:08:01.777Z,69.96
2022-09-07T12:09:01.748Z,69.96
2022-09-07T12:10:01.759Z,69.96
2022-09-07T12:11:01.722Z,69.86
2022-09-07T12:12:01.762Z,69.76
2022-09-07T12:13:01.706Z,69.66
2022-09-07T12:14:01.691Z,69.56
2022-09-07T12:15:01.721Z,69.43
2022-09-07T12:16:01.749Z,69.32
2022-09-07T12:17:01.665Z,69.32
2022-09-07T12:18:01.647Z,69.32
2022-09-07T12:19:01.638Z,69.23
2022-09-07T12:20:01.660Z,69.23
2022-09-07T12:21:01.620Z,69.13
2022-09-07T12:22:01.627Z,69.13
2022-09-07T12:23:04.917Z,69.02
2022-09-07T12:24:01.589Z,69.13
2022-09-07T12:25:01.778Z,69.13
2022-09-07T12:26:01.588Z,69.13
2022-09-07T12:27:01.564Z,69.16
2022-09-07T12:28:01.545Z,69.16
2022-09-07T12:29:01.536Z,69.16
2022-09-07T12:30:01.523Z,69.26
2022-09-07T12:31:01.768Z,69.26
2022-09-07T12:32:53.708Z,69.13
2022-09-07T12:33:02.539Z,69.13
2022-09-07T12:34:01.508Z,69.13
2022-09-07T12:35:01.473Z,69.13
2022-09-07T12:36:01.463Z,69.13
2022-09-07T12:37:01.450Z,69.13
2022-09-07T12:38:01.486Z,69.13
2022-09-07T12:39:01.430Z,69.13
2022-09-07T12:40:01.640Z,69.23
2022-09-07T12:41:01.411Z,69.23
2022-09-07T12:43:09.663Z,69.23
2022-09-07T12:44:02.397Z,69.32
2022-09-07T12:45:01.368Z,69.32
2022-09-07T12:46:01.432Z,69.36
2022-09-07T12:47:01.349Z,69.46
2022-09-07T12:48:01.335Z,69.32
2022-09-07T12:49:01.325Z,69.46
2022-09-07T12:50:01.319Z,69.56
2022-09-07T12:51:01.356Z,69.56
2022-09-07T12:52:09.068Z,69.56
2022-09-07T12:53:02.332Z,69.56
2022-09-07T12:54:01.291Z,69.56
2022-09-07T12:55:25.828Z,69.66
2022-09-07T12:56:17.992Z,69.76
2022-09-07T12:58:02.250Z,69.96
2022-09-07T12:59:01.241Z,69.86
2022-09-07T13:00:01.255Z,69.86
2022-09-07T13:01:01.304Z,69.86
2022-09-07T13:02:01.319Z,69.86
2022-09-07T13:03:01.176Z,69.86
2022-09-07T13:04:01.420Z,69.76
2022-09-07T13:05:01.157Z,69.86
2022-09-07T13:06:01.145Z,69.86
2022-09-07T13:07:02.506Z,69.86
2022-09-07T13:08:08.334Z,69.66
2022-09-07T13:09:02.116Z,69.86
2022-09-07T13:10:01.261Z,69.76
2022-09-07T13:11:01.093Z,69.76
2022-09-07T13:12:01.109Z,69.76
2022-09-07T13:13:01.071Z,69.76
2022-09-07T13:14:03.742Z,69.76
2022-09-07T13:15:01.051Z,69.66
2022-09-07T13:16:01.084Z,69.66
2022-09-07T13:17:16.666Z,69.66
2022-09-07T13:18:02.047Z,69.86
2022-09-07T13:19:01.904Z,70.45
2022-09-07T13:20:01.343Z,70.75
2022-09-07T13:21:00.988Z,70.95
2022-09-07T13:22:01.004Z,71.35
2022-09-07T13:23:00.968Z,71.51
2022-09-07T13:24:45.786Z,71.32
2022-09-07T13:25:01.946Z,71.51
2022-09-07T13:26:00.962Z,71.72
2022-09-07T13:27:00.925Z,71.81
2022-09-07T13:28:00.918Z,71.51